createdAt,value
2019-02-16T00:00:32.760Z,7.90
2019-02-16T00:03:03.687Z,7.90
2019-02-16T00:05:34.033Z,7.90
2019-02-16T00:08:04.593Z,7.90
2019-02-16T00:10:35.017Z,7.70
2019-02-16T00:13:06.241Z,7.70
2019-02-16T00:15:37.055Z,7.80
2019-02-16T00:18:07.785Z,7.80
2019-02-16T00:20:38.158Z,7.70
2019-02-16T00:23:08.489Z,7.70
2019-02-16T00:25:38.888Z,7.70
2019-02-16T00:28:09.266Z,7.60
2019-02-16T00:30:40.252Z,7.60
2019-02-16T00:33:10.924Z,7.50
2019-02-16T00:35:41.589Z,7.40
2019-02-16T00:38:12.007Z,7.30
2019-02-16T00:40:42.743Z,7.40
2019-02-16T00:43:13.098Z,7.40
2019-02-16T00:45:43.812Z,7.20
2019-02-16T00:48:14.145Z,7.20
2019-02-16T00:50:44.866Z,7.30
2019-02-16T00:53:15.283Z,7.20
2019-02-16T00:55:45.634Z,7.30
2019-02-16T00:58:16.357Z,7.20
2019-02-16T01:00:46.750Z,7.20
2019-02-16T01:03:17.077Z,7.30
2019-02-16T01:05:47.981Z,7.30
2019-02-16T01:08:19.911Z,7.30
2019-02-16T01:10:52.268Z,7.40
2019-02-16T01:13:22.929Z,7.40
2019-02-16T01:15:53.275Z,7.40
2019-02-16T01:18:23.587Z,7.40
2019-02-16T01:20:54.013Z,7.30
2019-02-16T01:23:24.342Z,7.10
2019-02-16T01:25:55.022Z,7.40
2019-02-16T01:28:25.767Z,7.30
2019-02-16T01:30:56.104Z,7.40
2019-02-16T01:33:27.221Z,7.50
2019-02-16T01:36:17.273Z,7.60
2019-02-16T01:38:47.643Z,7.60
2019-02-16T01:41:18.097Z,7.60
2019-02-16T01:43:48.963Z,7.50
2019-02-16T01:46:19.528Z,7.50
2019-02-16T01:48:50.607Z,7.50
2019-02-16T01:51:21.659Z,7.50
2019-02-16T01:53:52.061Z,7.60
2019-02-16T01:56:22.748Z,7.70
2019-02-16T01:58:54.109Z,7.60
2019-02-16T02:01:30.621Z,7.50
2019-02-16T02:04:01.987Z,7.40
2019-02-16T02:06:32.763Z,7.50
2019-02-16T02:09:04.565Z,7.50
2019-02-16T02:11:35.016Z,7.50
2019-02-16T02:14:26.822Z,7.50
2019-02-16T02:16:57.197Z,7.50
2019-02-16T02:19:28.223Z,7.40
2019-02-16T02:21:58.576Z,7.40
2019-02-16T02:24:29.196Z,7.40
2019-02-16T02:26:59.846Z,7.30
2019-02-16T02:29:30.468Z,7.40
2019-02-16T02:32:03.118Z,7.40
2019-02-16T02:34:33.416Z,7.30
2019-02-16T02:37:03.742Z,7.30
2019-02-16T02:39:34.127Z,7.20
2019-02-16T02:42:04.484Z,7.20
2019-02-16T02:44:35.068Z,7.20
2019-02-16T02:47:06.283Z,7.10
2019-02-16T02:49:36.646Z,6.90
2019-02-16T02:52:07.354Z,7.00
2019-02-16T02:54:38.043Z,6.90
2019-02-16T02:57:08.450Z,7.00
2019-02-16T02:59:39.243Z,6.90
2019-02-16T03:02:09.969Z,6.80
2019-02-16T03:04:40.387Z,6.80
2019-02-16T03:07:13.899Z,6.70
2019-02-16T03:09:44.353Z,6.70
2019-02-16T03:12:14.687Z,6.60
2019-02-16T03:14:46.356Z,6.30
2019-02-16T03:17:17.081Z,6.50
2019-02-16T03:19:47.430Z,6.50
2019-02-16T03:22:18.130Z,6.40
2019-02-16T03:24:58.449Z,6.20
2019-02-16T03:28:38.135Z,6.30
2019-02-16T03:31:54.859Z,6.30
2019-02-16T03:34:35.299Z,6.30
2019-02-16T03:38:15.435Z,6.30
2019-02-16T03:40:48.818Z,6.20
2019-02-16T03:43:19.994Z,6.30
2019-02-16T03:45:50.335Z,6.20
2019-02-16T03:48:20.740Z,6.20
2019-02-16T03:50:51.499Z,6.30
2019-02-16T03:53:22.106Z,6.30
2019-02-16T03:55:52.447Z,6.40
2019-02-16T03:58:23.187Z,6.40
2019-02-16T04:00:53.613Z,6.50
2019-02-16T04:03:24.332Z,6.70
2019-02-16T04:05:55.502Z,6.80
2019-02-16T04:08:25.913Z,6.80
2019-02-16T04:10:56.630Z,6.90
2019-02-16T04:13:27.688Z,6.90
2019-02-16T04:15:59.015Z,6.90
2019-02-16T04:18:30.532Z,7.00
2019-02-16T04:21:00.919Z,6.90
2019-02-16T04:23:31.308Z,7.10
2019-02-16T04:26:06.676Z,7.20
2019-02-16T04:28:37.045Z,7.40
2019-02-16T04:31:07.902Z,7.50
2019-02-16T04:33:38.323Z,7.70
2019-02-16T04:36:08.667Z,7.80
2019-02-16T04:38:38.974Z,7.90
2019-02-16T04:41:09.568Z,8.00
2019-02-16T04:43:39.958Z,8.20
2019-02-16T04:46:12.269Z,8.40
2019-02-16T04:48:42.906Z,8.50
2019-02-16T04:51:13.239Z,8.50
2019-02-16T04:53:43.531Z,8.70
2019-02-16T04:56:14.730Z,8.90
2019-02-16T04:58:45.082Z,9.10
2019-02-16T05:01:15.759Z,9.20
2019-02-16T05:03:46.517Z,9.40
2019-02-16T05:06:18.239Z,9.40
2019-02-16T05:08:48.629Z,9.50
2019-02-16T05:11:19.079Z,9.50
2019-02-16T05:13:50.130Z,9.50
2019-02-16T05:16:20.802Z,9.70
2019-02-16T05:18:51.457Z,9.70
2019-02-16T05:21:27.431Z,9.70
2019-02-16T05:23:58.357Z,9.70
2019-02-16T05:26:29.588Z,9.70
2019-02-16T05:29:00.306Z,9.70
2019-02-16T05:31:31.026Z,9.80
2019-02-16T05:34:01.352Z,9.80
2019-02-16T05:36:31.725Z,9.80
2019-02-16T05:39:02.101Z,9.80
2019-02-16T05:41:32.450Z,9.70
2019-02-16T05:44:08.493Z,9.70
2019-02-16T05:46:38.924Z,9.70
2019-02-16T05:49:09.533Z,9.80
2019-02-16T05:51:39.937Z,9.90
2019-02-16T05:54:10.264Z,10.00
2019-02-16T05:56:41.210Z,9.90
2019-02-16T05:59:11.573Z,9.80
2019-02-16T06:01:42.559Z,9.80
2019-02-16T06:04:13.167Z,9.80
2019-02-16T06:06:44.201Z,9.80
2019-02-16T06:09:14.790Z,9.90
2019-02-16T06:11:45.133Z,9.90
2019-02-16T06:14:15.890Z,9.90
2019-02-16T06:16:46.258Z,9.80
2019-02-16T06:19:16.616Z,9.80
2019-02-16T06:21:47.078Z,9.80
2019-02-16T06:24:17.657Z,9.70
2019-02-16T06:26:48.143Z,9.70
2019-02-16T06:29:18.495Z,9.70
2019-02-16T06:31:59.770Z,9.70
2019-02-16T06:34:32.277Z,9.60
2019-02-16T06:37:22.933Z,9.60
2019-02-16T06:39:53.609Z,9.70
2019-02-16T06:42:24.262Z,9.80
2019-02-16T06:44:55.267Z,9.90
2019-02-16T06:47:26.212Z,9.90
2019-02-16T06:49:57.541Z,9.90
2019-02-16T06:52:28.100Z,9.90
2019-02-16T06:55:05.323Z,9.90
2019-02-16T06:57:36.010Z,9.80
2019-02-16T07:00:07.416Z,9.80
2019-02-16T07:02:38.082Z,9.80
2019-02-16T07:05:08.546Z,9.80
2019-02-16T07:07:39.140Z,10.00
2019-02-16T07:10:15.396Z,10.10
2019-02-16T07:12:46.043Z,10.00
2019-02-16T07:15:17.302Z,9.90
2019-02-16T07:17:53.957Z,9.90
2019-02-16T07:20:25.163Z,9.80
2019-02-16T07:22:57.534Z,9.90
2019-02-16T07:25:28.099Z,9.90
2019-02-16T07:27:58.425Z,9.90
2019-02-16T07:30:29.077Z,9.90
2019-02-16T07:32:59.416Z,10.00
2019-02-16T07:35:29.996Z,10.00
2019-02-16T07:38:00.698Z,9.90
2019-02-16T07:40:31.307Z,10.00
2019-02-16T07:43:02.149Z,10.10
2019-02-16T07:45:49.992Z,10.10
2019-02-16T07:48:39.628Z,10.10
2019-02-16T07:51:41.028Z,10.10
2019-02-16T07:54:27.437Z,10.20
2019-02-16T07:57:05.569Z,10.30
2019-02-16T07:59:55.204Z,10.40
2019-02-16T08:02:43.476Z,10.60
2019-02-16T08:05:20.784Z,10.60
2019-02-16T08:08:16.198Z,10.70
2019-02-16T08:11:05.449Z,10.80
2019-02-16T08:14:03.976Z,10.80
2019-02-16T08:16:52.089Z,10.90
2019-02-16T08:19:27.746Z,11.00
2019-02-16T08:22:20.038Z,11.10
2019-02-16T08:25:03.413Z,11.10
2019-02-16T08:27:53.275Z,11.20
2019-02-16T08:30:30.930Z,11.40
2019-02-16T08:33:12.566Z,11.40
2019-02-16T08:35:50.311Z,11.40
2019-02-16T08:38:38.190Z,11.50
2019-02-16T08:41:25.620Z,11.50
2019-02-16T08:44:06.237Z,11.60
2019-02-16T08:46:47.118Z,11.40
2019-02-16T08:49:36.376Z,11.70
2019-02-16T08:52:28.479Z,11.70
2019-02-16T08:55:20.800Z,11.80
2019-02-16T08:58:10.479Z,11.80
2019-02-16T09:01:02.920Z,12.00
2019-02-16T09:04:04.304Z,12.20
2019-02-16T09:07:15.963Z,12.20
2019-02-16T09:10:04.159Z,12.30
2019-02-16T09:13:08.655Z,12.30
2019-02-16T09:16:01.270Z,12.40
2019-02-16T09:18:47.208Z,12.40
2019-02-16T09:21:51.886Z,12.60
2019-02-16T09:24:31.571Z,12.80
2019-02-16T09:27:19.487Z,13.00
2019-02-16T09:30:15.304Z,13.00
2019-02-16T09:33:23.302Z,13.10
2019-02-16T09:36:11.538Z,13.20
2019-02-16T09:38:56.616Z,13.50
2019-02-16T09:41:38.470Z,13.40
2019-02-16T09:44:27.383Z,13.50
2019-02-16T09:47:16.721Z,13.60
2019-02-16T09:50:18.235Z,13.60
2019-02-16T09:53:00.315Z,13.70
2019-02-16T09:56:01.776Z,14.10
2019-02-16T09:59:00.700Z,14.10
2019-02-16T10:01:50.306Z,14.30
2019-02-16T10:04:37.906Z,14.50
2019-02-16T10:07:26.706Z,14.30
2019-02-16T10:10:03.457Z,14.30
2019-02-16T10:12:52.734Z,14.20
2019-02-16T10:15:40.778Z,14.40
2019-02-16T10:18:36.112Z,14.50
2019-02-16T10:21:16.918Z,14.30
2019-02-16T10:24:00.036Z,14.60
2019-02-16T10:26:46.023Z,14.60
2019-02-16T10:29:44.285Z,14.90
2019-02-16T10:32:36.699Z,15.20
2019-02-16T10:35:26.405Z,15.30
2019-02-16T10:38:15.697Z,15.10
2019-02-16T10:41:08.031Z,15.40
2019-02-16T10:43:43.615Z,15.30
2019-02-16T10:46:32.873Z,15.40
2019-02-16T10:49:22.276Z,15.70
2019-02-16T10:51:59.120Z,15.80
2019-02-16T10:54:47.167Z,16.00
2019-02-16T10:57:35.341Z,15.90
2019-02-16T11:00:14.807Z,16.00
2019-02-16T11:03:05.204Z,15.90
2019-02-16T11:06:00.681Z,16.10
2019-02-16T11:08:56.935Z,16.50
2019-02-16T11:12:01.605Z,16.00
2019-02-16T11:14:41.154Z,16.00
2019-02-16T11:17:33.269Z,16.30
2019-02-16T11:20:30.927Z,16.50
2019-02-16T11:23:17.670Z,16.40
2019-02-16T11:25:59.678Z,16.30
2019-02-16T11:28:58.091Z,16.20
2019-02-16T11:32:03.413Z,16.00
2019-02-16T11:34:44.137Z,15.60
2019-02-16T11:37:36.455Z,15.50
2019-02-16T11:40:19.427Z,15.40
2019-02-16T11:43:11.912Z,15.40
2019-02-16T11:46:07.485Z,15.40
2019-02-16T11:48:54.664Z,15.30
2019-02-16T11:51:43.238Z,15.20
2019-02-16T11:54:45.487Z,15.30
2019-02-16T11:57:30.183Z,15.10
2019-02-16T12:00:21.840Z,15.40
2019-02-16T12:03:05.007Z,15.60
2019-02-16T12:05:49.917Z,15.40
2019-02-16T12:08:33.195Z,15.50
2019-02-16T12:11:21.960Z,15.50
2019-02-16T12:14:10.265Z,15.70
2019-02-16T12:16:59.899Z,15.70
2019-02-16T12:19:52.212Z,15.80
2019-02-16T12:22:39.327Z,15.90
2019-02-16T12:25:37.627Z,15.70
2019-02-16T12:28:45.091Z,15.70
2019-02-16T12:31:34.743Z,15.70
2019-02-16T12:34:25.635Z,15.90
2019-02-16T12:37:03.352Z,15.90
2019-02-16T12:39:45.831Z,15.90
2019-02-16T12:42:39.640Z,15.90
2019-02-16T12:45:24.390Z,16.10
2019-02-16T12:48:17.330Z,16.10
2019-02-16T12:51:03.632Z,16.20
2019-02-16T12:53:56.247Z,16.20
2019-02-16T12:56:50.090Z,16.20
2019-02-16T12:59:28.683Z,16.10
2019-02-16T13:02:30.856Z,16.30
2019-02-16T13:05:19.007Z,16.30
2019-02-16T13:08:03.919Z,16.20
2019-02-16T13:10:53.487Z,16.40
2019-02-16T13:13:29.520Z,16.30
2019-02-16T13:16:10.648Z,16.30
2019-02-16T13:19:00.225Z,16.50
2019-02-16T13:21:52.413Z,16.40
2019-02-16T13:24:41.682Z,16.50
2019-02-16T13:27:37.772Z,16.40
2019-02-16T13:30:36.338Z,16.40
2019-02-16T13:33:28.425Z,16.60
2019-02-16T13:36:06.406Z,16.60
2019-02-16T13:38:55.700Z,16.60
2019-02-16T13:42:00.555Z,16.70
2019-02-16T13:45:12.950Z,16.60
2019-02-16T13:48:08.724Z,16.80
2019-02-16T13:51:04.334Z,16.70
2019-02-16T13:53:53.614Z,16.60
2019-02-16T13:56:32.878Z,16.60
2019-02-16T13:59:19.315Z,16.50
2019-02-16T14:01:56.740Z,16.50
2019-02-16T14:04:49.173Z,16.70
2019-02-16T14:07:27.427Z,16.70
2019-02-16T14:10:26.101Z,16.80
2019-02-16T14:13:09.741Z,16.80
2019-02-16T14:15:54.060Z,16.60
2019-02-16T14:18:24.440Z,16.80
2019-02-16T14:20:55.449Z,16.80
2019-02-16T14:23:25.807Z,16.60
2019-02-16T14:25:56.385Z,16.60
2019-02-16T14:28:27.145Z,16.70
2019-02-16T14:30:58.091Z,16.70
2019-02-16T14:33:28.417Z,16.80
2019-02-16T14:35:58.775Z,16.80
2019-02-16T14:38:46.874Z,16.90
2019-02-16T14:41:17.229Z,16.90
2019-02-16T14:43:48.444Z,16.80
2019-02-16T14:46:19.132Z,16.80
2019-02-16T14:48:50.102Z,17.00
2019-02-16T14:51:20.579Z,17.00
2019-02-16T14:53:50.952Z,17.10
2019-02-16T14:56:21.923Z,17.20
2019-02-16T14:58:52.277Z,17.10
2019-02-16T15:01:22.593Z,17.10
2019-02-16T15:03:53.168Z,17.10
2019-02-16T15:06:24.053Z,17.20
2019-02-16T15:09:00.911Z,17.20
2019-02-16T15:11:31.220Z,17.20
2019-02-16T15:14:01.605Z,17.20
2019-02-16T15:16:32.036Z,17.20
2019-02-16T15:19:02.937Z,17.20
2019-02-16T15:21:33.313Z,17.20
2019-02-16T15:24:03.709Z,17.10
2019-02-16T15:26:34.130Z,17.00
2019-02-16T15:29:04.580Z,16.80
2019-02-16T15:31:35.250Z,16.80
2019-02-16T15:34:06.649Z,16.80
2019-02-16T15:36:37.377Z,16.70
2019-02-16T15:39:08.785Z,16.60
2019-02-16T15:41:39.117Z,16.50
2019-02-16T15:44:10.770Z,16.60
2019-02-16T15:46:41.390Z,16.60
2019-02-16T15:49:11.733Z,16.60
2019-02-16T15:51:42.071Z,16.40
2019-02-16T15:54:12.409Z,16.30
2019-02-16T15:56:42.796Z,16.20
2019-02-16T15:59:13.192Z,16.20
2019-02-16T16:01:43.592Z,16.10
2019-02-16T16:04:14.382Z,16.00
2019-02-16T16:06:45.143Z,15.90
2019-02-16T16:09:34.550Z,15.80
2019-02-16T16:12:13.436Z,15.70
2019-02-16T16:14:56.333Z,15.70
2019-02-16T16:17:46.992Z,15.60
2019-02-16T16:20:42.680Z,15.50
2019-02-16T16:23:31.699Z,15.40
2019-02-16T16:26:27.025Z,15.30
2019-02-16T16:29:22.226Z,15.30
2019-02-16T16:32:02.459Z,15.10
2019-02-16T16:34:56.605Z,15.00
2019-02-16T16:37:48.256Z,15.00
2019-02-16T16:40:36.158Z,14.90
2019-02-16T16:43:22.167Z,14.80
2019-02-16T16:46:23.769Z,14.70
2019-02-16T16:49:03.919Z,14.60
2019-02-16T16:51:53.195Z,14.50
2019-02-16T16:54:42.519Z,14.30
2019-02-16T16:57:18.927Z,14.20
2019-02-16T17:00:02.897Z,14.10
2019-02-16T17:02:55.392Z,14.00
2019-02-16T17:05:56.530Z,13.90
2019-02-16T17:08:52.012Z,13.70
2019-02-16T17:11:53.005Z,13.70
2019-02-16T17:14:36.347Z,13.50
2019-02-16T17:17:31.972Z,13.50
2019-02-16T17:20:16.908Z,13.50
2019-02-16T17:23:06.176Z,13.30
2019-02-16T17:25:52.498Z,13.20
2019-02-16T17:29:00.202Z,13.10
2019-02-16T17:32:01.765Z,13.00
2019-02-16T17:34:41.806Z,13.00
2019-02-16T17:37:18.349Z,13.00
2019-02-16T17:40:19.587Z,13.00
2019-02-16T17:43:05.678Z,13.00
2019-02-16T17:46:07.332Z,13.00
2019-02-16T17:48:54.883Z,12.90
2019-02-16T17:51:32.399Z,12.80
2019-02-16T17:54:31.371Z,12.80
2019-02-16T17:57:13.809Z,12.80
2019-02-16T18:00:06.153Z,12.90
2019-02-16T18:02:55.428Z,12.90
2019-02-16T18:05:56.961Z,12.80
2019-02-16T18:08:43.163Z,12.80
2019-02-16T18:11:32.483Z,12.90
2019-02-16T18:14:18.943Z,12.90
2019-02-16T18:17:16.005Z,12.80
2019-02-16T18:20:05.275Z,12.80
2019-02-16T18:22:48.044Z,12.80
2019-02-16T18:25:28.322Z,12.70
2019-02-16T18:28:20.674Z,12.60
2019-02-16T18:31:28.230Z,12.40
2019-02-16T18:34:30.162Z,12.30
2019-02-16T18:37:09.316Z,12.20
2019-02-16T18:40:02.309Z,12.10
2019-02-16T18:43:00.473Z,11.90
2019-02-16T18:45:49.763Z,11.80
2019-02-16T18:48:26.866Z,11.70
2019-02-16T18:51:15.299Z,11.70
2019-02-16T18:53:55.210Z,11.60
2019-02-16T18:57:06.787Z,11.70
2019-02-16T18:59:48.658Z,11.70
2019-02-16T19:02:37.091Z,11.70
2019-02-16T19:05:25.600Z,11.70
2019-02-16T19:08:13.799Z,11.50
2019-02-16T19:11:03.120Z,11.30
2019-02-16T19:13:55.861Z,11.10
2019-02-16T19:16:49.250Z,11.00
2019-02-16T19:19:37.161Z,10.90
2019-02-16T19:22:32.291Z,10.80
2019-02-16T19:25:33.655Z,10.60
2019-02-16T19:28:10.648Z,10.50
2019-02-16T19:30:59.023Z,10.40
2019-02-16T19:34:00.863Z,10.40
2019-02-16T19:36:50.754Z,10.40
2019-02-16T19:39:49.061Z,10.40
2019-02-16T19:42:56.827Z,10.40
2019-02-16T19:45:58.465Z,10.20
2019-02-16T19:48:46.398Z,10.00
2019-02-16T19:51:34.350Z,9.90
2019-02-16T19:54:25.688Z,9.90
2019-02-16T19:57:26.993Z,9.90
2019-02-16T20:00:12.024Z,9.80
2019-02-16T20:03:04.248Z,9.70
2019-02-16T20:05:52.655Z,9.70
2019-02-16T20:08:40.579Z,9.60
2019-02-16T20:11:35.654Z,9.60
2019-02-16T20:14:37.292Z,9.50
2019-02-16T20:17:21.309Z,9.60
2019-02-16T20:20:20.037Z,9.60
2019-02-16T20:23:08.862Z,9.40
2019-02-16T20:25:58.398Z,9.40
2019-02-16T20:28:50.583Z,9.40
2019-02-16T20:31:37.868Z,9.40
2019-02-16T20:34:30.154Z,9.40
2019-02-16T20:37:22.771Z,9.40
2019-02-16T20:40:18.026Z,9.40
2019-02-16T20:42:57.659Z,9.30
2019-02-16T20:45:40.510Z,9.30
2019-02-16T20:48:33.136Z,9.20
2019-02-16T20:51:15.903Z,9.00
2019-02-16T20:54:00.574Z,9.00
2019-02-16T20:56:48.939Z,8.90
2019-02-16T20:59:53.390Z,8.90
2019-02-16T21:02:45.354Z,8.90
2019-02-16T21:05:35.254Z,8.70
2019-02-16T21:08:23.913Z,8.80
2019-02-16T21:11:31.464Z,8.90
2019-02-16T21:14:16.233Z,8.90
2019-02-16T21:17:05.560Z,8.90
2019-02-16T21:19:55.385Z,8.80
2019-02-16T21:22:32.735Z,8.70
2019-02-16T21:25:09.207Z,8.70
2019-02-16T21:27:44.866Z,8.80
2019-02-16T21:30:39.931Z,8.80
2019-02-16T21:33:24.463Z,8.60
2019-02-16T21:36:20.125Z,8.40
2019-02-16T21:39:08.231Z,8.50
2019-02-16T21:42:01.085Z,8.60
2019-02-16T21:44:44.058Z,8.60
2019-02-16T21:47:31.294Z,8.60
2019-02-16T21:50:28.150Z,8.50
2019-02-16T21:53:07.315Z,8.20
2019-02-16T21:55:46.562Z,8.10
2019-02-16T21:58:24.125Z,8.10
2019-02-16T22:01:20.062Z,8.20
2019-02-16T22:03:59.469Z,8.30
2019-02-16T22:06:38.288Z,8.40
2019-02-16T22:09:28.938Z,8.40
2019-02-16T22:12:18.858Z,8.20
2019-02-16T22:14:49.611Z,8.20
2019-02-16T22:17:19.986Z,8.10
2019-02-16T22:19:50.361Z,8.00
2019-02-16T22:22:23.391Z,7.90
2019-02-16T22:24:53.784Z,7.90
2019-02-16T22:27:24.472Z,7.90
2019-02-16T22:29:54.928Z,7.80
2019-02-16T22:32:25.377Z,7.80
2019-02-16T22:34:57.748Z,7.80
2019-02-16T22:37:28.656Z,7.90
2019-02-16T22:39:59.559Z,8.00
2019-02-16T22:42:29.927Z,8.10
2019-02-16T22:45:00.349Z,8.00
2019-02-16T22:47:33.974Z,7.80
2019-02-16T22:50:04.998Z,7.70
2019-02-16T22:52:35.320Z,7.80
2019-02-16T22:55:06.635Z,7.90
2019-02-16T22:57:36.954Z,7.80
2019-02-16T23:00:13.192Z,7.80
2019-02-16T23:02:44.093Z,7.80
2019-02-16T23:05:14.775Z,7.80
2019-02-16T23:07:45.112Z,7.70
2019-02-16T23:10:15.613Z,7.60
2019-02-16T23:12:45.920Z,7.50
2019-02-16T23:15:16.757Z,7.40
2019-02-16T23:17:47.090Z,7.40
2019-02-16T23:20:18.063Z,7.50
2019-02-16T23:22:48.814Z,7.60
2019-02-16T23:25:38.818Z,7.60
2019-02-16T23:28:09.292Z,7.40
2019-02-16T23:30:39.625Z,7.30
2019-02-16T23:33:09.973Z,7.30
2019-02-16T23:35:41.210Z,7.30
2019-02-16T23:38:11.504Z,7.40
2019-02-16T23:40:42.450Z,7.30
2019-02-16T23:43:12.794Z,7.20
2019-02-16T23:45:43.422Z,7.30
2019-02-16T23:48:13.723Z,7.30
2019-02-16T23:50:44.525Z,7.30
2019-02-16T23:53:15.116Z,7.30
2019-02-16T23:55:45.459Z,7.30
2019-02-16T23:58:16.028Z,7.40
